Time;durP1;ratioP1;P1;durP2;ratioP2;P2;SDS_P1;SDS_P2;PMS_P1;PMS_P2;Temp;Humidity;BMP_temperature;BMP_pressure;BME280_temperature;BME280_humidity;BME280_pressure;Samples;Min_cycle;Max_cycle;Signal;HPM_P1;HPM_P2
2021/11/21 00:00:12;;;;;;;1.45;1.10;;;19.60;29.10;20.10;93813.00;;;;10481288;28;47039;-62
2021/11/21 00:05:14;;;;;;;2.22;1.20;;;19.60;29.10;20.00;93837.00;;;;10482003;28;45393;-62
2021/11/21 00:10:15;;;;;;;1.23;1.10;;;19.60;29.10;20.00;93832.00;;;;10480708;28;47553;-62
2021/11/21 00:15:16;;;;;;;1.23;0.80;;;19.60;29.10;20.00;93824.00;;;;10479682;28;46312;-62
2021/11/21 00:20:17;;;;;;;1.08;0.98;;;19.60;29.10;20.00;93798.00;;;;10475371;28;46129;-62
2021/11/21 00:25:17;;;;;;;1.58;1.08;;;19.60;29.10;20.10;93805.00;;;;10438283;28;45144;-62
2021/11/21 00:30:19;;;;;;;1.33;1.08;;;19.60;29.10;20.00;93798.00;;;;10438147;28;45550;-62
2021/11/21 00:35:20;;;;;;;1.40;1.00;;;19.60;29.10;20.00;93796.00;;;;10438268;28;45188;-62
2021/11/21 00:40:21;;;;;;;1.15;0.90;;;19.60;29.00;20.00;93781.00;;;;10437817;28;45159;-62
2021/11/21 00:45:22;;;;;;;1.30;0.88;;;19.60;29.00;20.00;93784.00;;;;10438137;28;46653;-62
2021/11/21 00:50:26;;;;;;;1.45;1.20;;;19.60;29.10;20.00;93767.00;;;;10464903;28;45368;-62
2021/11/21 00:55:41;;;;;;;1.20;0.90;;;19.60;29.10;20.00;93763.00;;;;10479257;28;48276;-62
2021/11/21 01:00:47;;;;;;;1.00;0.90;;;19.60;29.10;20.00;93749.00;;;;10481285;28;47159;-62
2021/11/21 01:05:50;;;;;;;1.63;1.20;;;19.60;29.10;20.00;93744.00;;;;10480784;28;48047;-62
2021/11/21 01:10:59;;;;;;;1.08;0.93;;;19.60;29.10;20.00;93752.00;;;;10480217;28;46436;-62
2021/11/21 01:16:01;;;;;;;1.80;0.82;;;19.60;29.10;20.00;93741.00;;;;10426102;22;46539;-60
2021/11/21 01:21:04;;;;;;;1.33;0.93;;;19.60;29.10;20.00;93737.00;;;;10396006;28;46536;-59
2021/11/21 01:26:05;;;;;;;1.10;0.82;;;19.60;29.00;20.00;93740.00;;;;10370791;28;45258;-60
2021/11/21 01:31:05;;;;;;;1.00;0.90;;;19.60;29.10;20.00;93739.00;;;;10388495;28;46222;-59
2021/11/21 01:36:06;;;;;;;1.00;0.80;;;19.60;29.00;20.00;93715.00;;;;10394687;28;45231;-59
2021/11/21 01:41:07;;;;;;;1.40;0.98;;;19.60;29.10;20.00;93687.00;;;;10394501;28;45606;-60
2021/11/21 01:46:09;;;;;;;1.17;1.02;;;19.60;29.10;20.00;93712.00;;;;10392510;28;46588;-60
2021/11/21 01:51:11;;;;;;;1.00;0.90;;;19.60;29.10;20.00;93714.00;;;;10403686;28;45239;-59
2021/11/21 01:56:12;;;;;;;1.00;0.90;;;19.60;29.00;20.00;93700.00;;;;10410161;28;47301;-59
2021/11/21 02:01:13;;;;;;;1.52;1.08;;;19.60;29.10;20.00;93697.00;;;;10389190;28;45263;-60
2021/11/21 02:06:13;;;;;;;0.88;0.80;;;19.60;29.10;20.00;93690.00;;;;10391268;28;45517;-60
2021/11/21 02:11:14;;;;;;;0.65;0.57;;;19.60;29.00;20.00;93664.00;;;;10393654;28;46412;-60
2021/11/21 02:16:20;;;;;;;1.05;0.93;;;19.60;29.00;20.00;93654.00;;;;10393739;28;45288;-60
2021/11/21 02:21:22;;;;;;;1.40;0.88;;;19.60;29.00;20.00;93667.00;;;;10394275;28;46311;-59
2021/11/21 02:26:23;;;;;;;1.20;0.90;;;19.60;29.00;20.00;93652.00;;;;10392714;28;47232;-60
2021/11/21 02:31:24;;;;;;;0.80;0.70;;;19.60;29.00;20.00;93638.00;;;;10393647;28;45737;-60
2021/11/21 02:36:25;;;;;;;0.70;0.68;;;19.60;29.00;20.00;93646.00;;;;10393345;28;45297;-60
2021/11/21 02:41:27;;;;;;;1.30;0.82;;;19.60;29.00;20.00;93636.00;;;;10409856;28;47796;-58
2021/11/21 02:46:31;;;;;;;0.93;0.80;;;19.60;29.10;20.00;93623.00;;;;10393183;28;45552;-60
2021/11/21 02:51:31;;;;;;;1.13;0.90;;;19.60;29.00;20.00;93620.00;;;;10358249;28;46225;-61
2021/11/21 02:56:32;;;;;;;0.68;0.68;;;19.60;29.00;20.00;93615.00;;;;10353872;28;46701;-60
2021/11/21 03:01:33;;;;;;;1.00;0.80;;;19.60;29.00;20.00;93612.00;;;;10369108;28;46402;-58
2021/11/21 03:06:37;;;;;;;0.98;0.80;;;19.60;29.00;20.00;93607.00;;;;10368750;28;46394;-61
2021/11/21 03:11:37;;;;;;;0.80;0.80;;;19.60;29.00;20.00;93605.00;;;;10352451;28;45198;-58
2021/11/21 03:16:38;;;;;;;1.35;0.73;;;19.60;29.00;20.00;93598.00;;;;10367326;28;46941;-59
2021/11/21 03:21:39;;;;;;;0.82;0.63;;;19.50;29.00;20.00;93587.00;;;;10367193;28;46875;-59
2021/11/21 03:26:40;;;;;;;0.65;0.57;;;19.50;28.90;20.00;93580.00;;;;10351459;28;45270;-60
2021/11/21 03:31:40;;;;;;;0.60;0.60;;;19.60;29.00;20.00;93570.00;;;;10365815;28;45185;-59
2021/11/21 03:36:42;;;;;;;0.77;0.70;;;19.60;29.00;19.90;93580.00;;;;10366456;28;46499;-59
2021/11/21 03:41:43;;;;;;;0.60;0.60;;;19.50;29.00;20.00;93579.00;;;;10366392;28;46971;-59
2021/11/21 03:46:44;;;;;;;0.90;0.65;;;19.50;29.00;20.00;93577.00;;;;10366650;28;45449;-60
2021/11/21 03:51:44;;;;;;;1.38;0.60;;;19.50;29.50;20.00;93563.00;;;;10404760;28;47059;-59
2021/11/21 03:56:45;;;;;;;0.60;0.60;;;19.50;28.90;19.90;93565.00;;;;10390768;28;45428;-60
2021/11/21 04:01:48;;;;;;;0.63;0.60;;;19.50;28.90;19.90;93562.00;;;;10390203;28;46502;-60
2021/11/21 04:06:50;;;;;;;0.80;0.60;;;19.50;28.90;19.90;93564.00;;;;10390097;28;47896;-60
2021/11/21 04:11:52;;;;;;;0.52;0.52;;;19.50;28.90;20.00;93560.00;;;;10406580;28;47450;-59
2021/11/21 04:16:52;;;;;;;0.68;0.55;;;19.60;28.90;20.00;93551.00;;;;10390480;28;46389;-59
2021/11/21 04:21:53;;;;;;;1.30;0.60;;;19.50;28.90;20.00;93535.00;;;;10390327;28;45470;-60
2021/11/21 04:26:54;;;;;;;0.60;0.57;;;19.50;28.80;20.00;93547.00;;;;10390062;28;46440;-60
2021/11/21 04:31:54;;;;;;;0.50;0.50;;;19.50;28.80;20.00;93544.00;;;;10391146;28;45399;-59
2021/11/21 04:36:57;;;;;;;0.90;0.60;;;19.50;28.80;19.90;93518.00;;;;10389920;28;45430;-59
2021/11/21 04:41:57;;;;;;;0.60;0.60;;;19.50;28.80;19.90;93539.00;;;;10390941;28;47290;-60
2021/11/21 04:46:58;;;;;;;0.80;0.60;;;19.50;28.70;19.90;93530.00;;;;10397679;28;45201;-60
2021/11/21 04:51:59;;;;;;;0.47;0.40;;;19.50;28.70;19.90;93515.00;;;;10331613;28;46346;-59
2021/11/21 04:57:00;;;;;;;0.70;0.50;;;19.50;28.60;19.90;93530.00;;;;10298619;28;47034;-61
2021/11/21 05:02:04;;;;;;;0.45;0.45;;;19.50;28.70;19.90;93524.00;;;;10314625;28;45159;-60
2021/11/21 05:07:06;;;;;;;0.68;0.68;;;19.50;28.70;19.90;93507.00;;;;10298192;28;47416;-59
2021/11/21 05:12:07;;;;;;;0.50;0.50;;;19.50;28.60;19.90;93498.00;;;;10297420;28;47110;-62
2021/11/21 05:17:08;;;;;;;0.80;0.60;;;19.50;28.60;19.90;93496.00;;;;10315643;28;45364;-61
2021/11/21 05:22:09;;;;;;;0.60;0.55;;;19.50;28.60;20.00;93492.00;;;;10313948;28;45273;-58
2021/11/21 05:27:10;;;;;;;0.65;0.60;;;19.50;28.60;20.00;93483.00;;;;10314196;28;45404;-58
2021/11/21 05:32:11;;;;;;;0.55;0.50;;;19.50;28.50;20.00;93491.00;;;;10315405;28;45209;-59
2021/11/21 05:37:13;;;;;;;0.60;0.60;;;19.50;28.60;19.90;93496.00;;;;10297602;28;47468;-58
2021/11/21 05:42:13;;;;;;;0.57;0.52;;;19.50;28.60;19.90;93480.00;;;;10314018;28;45182;-60
2021/11/21 05:47:14;;;;;;;0.50;0.47;;;19.50;28.50;19.90;93481.00;;;;10316765;28;45242;-59
2021/11/21 05:52:15;;;;;;;0.65;0.50;;;19.50;28.50;19.90;93473.00;;;;10395051;28;45138;-59
2021/11/21 05:57:16;;;;;;;0.75;0.60;;;19.50;28.50;19.90;93473.00;;;;10410667;28;46962;-61
2021/11/21 06:02:17;;;;;;;0.70;0.70;;;19.50;28.50;19.90;93485.00;;;;10394177;28;46496;-59
2021/11/21 06:07:17;;;;;;;0.70;0.60;;;19.50;28.50;19.80;93476.00;;;;10394354;28;46305;-61
2021/11/21 06:12:18;;;;;;;1.02;0.60;;;19.50;28.50;19.80;93472.00;;;;10395016;28;45306;-59
2021/11/21 06:17:19;;;;;;;0.50;0.50;;;19.50;28.40;19.80;93463.00;;;;10394123;28;45263;-58
2021/11/21 06:22:19;;;;;;;0.75;0.60;;;19.50;28.40;19.80;93456.00;;;;10394316;28;45166;-59
2021/11/21 06:27:20;;;;;;;0.60;0.60;;;19.40;28.40;19.80;93477.00;;;;10392844;28;45470;-59
2021/11/21 06:32:21;;;;;;;0.63;0.60;;;19.40;28.30;19.80;93469.00;;;;10393530;28;45647;-60
2021/11/21 06:37:21;;;;;;;0.40;0.40;;;19.40;28.30;19.80;93471.00;;;;10394112;28;45335;-60
2021/11/21 06:42:22;;;;;;;0.50;0.50;;;19.40;28.20;19.80;93465.00;;;;10392181;28;47252;-59
2021/11/21 06:47:23;;;;;;;0.77;0.60;;;19.50;28.30;19.80;93446.00;;;;10389691;28;46444;-60
2021/11/21 06:52:24;;;;;;;0.63;0.60;;;19.40;28.20;19.90;93455.00;;;;10367870;28;47189;-60
2021/11/21 06:57:25;;;;;;;0.50;0.50;;;19.40;28.20;19.90;93452.00;;;;10368534;28;45828;-59
2021/11/21 07:02:26;;;;;;;0.50;0.50;;;19.40;28.10;19.80;93435.00;;;;10344743;28;46121;-60
2021/11/21 07:07:27;;;;;;;0.88;0.70;;;19.50;28.10;19.80;93452.00;;;;10287853;28;48263;-60
2021/11/21 07:12:28;;;;;;;0.70;0.50;;;19.40;28.00;19.80;93448.00;;;;10274498;28;45268;-60
2021/11/21 07:17:29;;;;;;;1.33;0.50;;;19.40;28.00;19.80;93444.00;;;;10297596;28;45270;-60
2021/11/21 07:22:29;;;;;;;0.50;0.50;;;19.40;28.00;19.90;93441.00;;;;10338944;22;45801;-60
2021/11/21 07:27:30;;;;;;;0.70;0.60;;;19.40;28.00;19.80;93427.00;;;;10340829;28;45187;-62
2021/11/21 07:32:31;;;;;;;0.50;0.50;;;19.40;28.00;19.80;93425.00;;;;10311168;28;45263;-64
2021/11/21 07:37:31;;;;;;;0.73;0.50;;;19.40;28.00;19.80;93427.00;;;;10311505;28;45282;-63
2021/11/21 07:42:32;;;;;;;0.55;0.50;;;19.40;28.00;19.80;93422.00;;;;10294052;28;45184;-62
2021/11/21 07:47:33;;;;;;;0.50;0.50;;;19.40;28.00;19.80;93416.00;;;;10292867;28;47268;-62
2021/11/21 07:52:34;;;;;;;0.88;0.60;;;19.40;28.00;19.80;93418.00;;;;10293696;28;45171;-61
2021/11/21 07:57:35;;;;;;;0.63;0.52;;;19.40;28.00;19.80;93427.00;;;;10255100;28;45478;-62
2021/11/21 08:02:37;;;;;;;0.80;0.70;;;19.40;28.00;19.80;93418.00;;;;10253452;28;45166;-61
2021/11/21 08:07:38;;;;;;;1.70;0.98;;;19.40;28.00;19.90;93429.00;;;;10253067;28;47109;-61
2021/11/21 08:12:39;;;;;;;2.15;1.17;;;19.40;28.20;19.90;93411.00;;;;10252059;28;45203;-61
2021/11/21 08:17:39;;;;;;;5.60;1.10;;;19.50;27.70;19.90;93422.00;;;;10255249;28;46061;-62
2021/11/21 08:22:40;;;;;;;1.48;1.00;;;19.50;27.50;19.90;93419.00;;;;10256857;28;45191;-60
2021/11/21 08:27:41;;;;;;;1.63;1.00;;;19.50;27.70;20.00;93399.00;;;;10264206;28;46300;-62
2021/11/21 08:32:42;;;;;;;0.80;0.80;;;19.50;27.90;20.00;93417.00;;;;10297931;28;45462;-60
2021/11/21 08:37:43;;;;;;;4.03;0.82;;;19.50;28.00;20.00;93407.00;;;;10297564;28;47078;-62
2021/11/21 08:42:43;;;;;;;1.25;0.98;;;19.60;27.80;20.00;93412.00;;;;10278398;28;47293;-61
2021/11/21 08:47:44;;;;;;;1.35;1.02;;;19.60;28.00;20.00;93393.00;;;;10263017;28;46969;-61
2021/11/21 08:52:44;;;;;;;1.30;0.93;;;19.60;27.90;20.10;93400.00;;;;10261875;28;45645;-60
2021/11/21 08:57:45;;;;;;;1.45;0.90;;;19.60;28.00;20.10;93399.00;;;;10256167;28;45624;-61
2021/11/21 09:02:47;;;;;;;1.40;0.90;;;19.70;27.90;20.10;93410.00;;;;10255620;28;47127;-61
2021/11/21 09:07:47;;;;;;;0.90;0.80;;;19.70;27.90;20.00;93402.00;;;;10257181;28;45439;-60
2021/11/21 09:12:49;;;;;;;1.42;0.90;;;19.70;27.80;20.10;93387.00;;;;10257101;28;48382;-65
2021/11/21 09:17:53;;;;;;;0.73;0.70;;;19.70;27.60;20.00;93412.00;;;;10257079;28;45563;-61
2021/11/21 09:22:54;;;;;;;8.18;3.10;;;19.60;27.80;20.00;93402.00;;;;10255549;28;46035;-61
2021/11/21 09:27:55;;;;;;;12.50;4.93;;;19.60;27.70;20.00;93403.00;;;;10304489;28;46083;-61
2021/11/21 09:32:56;;;;;;;12.57;4.60;;;19.60;27.80;20.00;93397.00;;;;10256227;28;45385;-61
2021/11/21 09:37:58;;;;;;;12.63;4.80;;;19.60;28.30;20.00;93397.00;;;;10256535;28;45436;-62
2021/11/21 09:43:01;;;;;;;10.57;4.22;;;19.60;27.80;20.10;93398.00;;;;10256057;28;46061;-61
2021/11/21 09:48:05;;;;;;;10.60;3.95;;;19.60;28.20;20.10;93380.00;;;;10261671;28;45318;-61
2021/11/21 09:53:12;;;;;;;6.35;2.65;;;19.70;28.50;20.10;93363.00;;;;10258827;28;47281;-62
2021/11/21 09:58:13;;;;;;;6.57;2.78;;;19.70;28.60;20.20;93376.00;;;;10253941;28;45339;-60
2021/11/21 10:03:16;;;;;;;7.53;2.33;;;19.70;28.70;20.20;93381.00;;;;10271258;28;45632;-61
2021/11/21 10:08:30;;;;;;;4.80;2.20;;;19.70;29.30;20.20;93372.00;;;;10253289;28;45472;-61
2021/11/21 10:13:37;;;;;;;5.10;1.83;;;19.80;28.80;20.20;93352.00;;;;10252562;28;46101;-62
2021/11/21 10:19:07;;;;;;;4.60;1.75;;;19.80;29.00;20.20;93361.00;;;;10300883;28;45302;-60
2021/11/21 10:24:21;;;;;;;5.97;1.90;;;19.80;29.00;20.20;93351.00;;;;10312683;28;45238;-61
2021/11/21 10:29:40;;;;;;;13.98;1.90;;;19.80;29.30;20.20;93344.00;;;;10292507;28;45551;-61
2021/11/21 10:35:16;;;;;;;2.45;1.30;;;19.80;29.20;20.20;93323.00;;;;10254329;28;47183;-61
2021/11/21 10:40:19;;;;;;;2.65;1.20;;;19.80;28.90;20.20;93322.00;;;;10253314;28;48199;-62
2021/11/21 10:45:26;;;;;;;3.10;1.00;;;19.80;28.70;20.20;93317.00;;;;10253738;28;46570;-61
2021/11/21 10:50:32;;;;;;;2.05;1.00;;;19.80;29.10;20.20;93302.00;;;;10264133;28;47069;-61
2021/11/21 10:55:39;;;;;;;4.35;1.27;;;19.80;29.10;20.30;93286.00;;;;10253493;28;46259;-61
2021/11/21 11:00:42;;;;;;;3.55;1.00;;;19.80;29.30;20.30;93288.00;;;;10252977;28;47064;-62
2021/11/21 11:05:43;;;;;;;3.22;1.13;;;19.90;29.50;20.20;93286.00;;;;10253639;28;47030;-62
2021/11/21 11:10:43;;;;;;;4.60;1.20;;;19.80;29.30;20.20;93283.00;;;;10253218;28;45176;-61
2021/11/21 11:15:45;;;;;;;2.90;1.02;;;19.80;29.30;20.20;93267.00;;;;10253685;28;46547;-62
2021/11/21 11:20:53;;;;;;;2.35;1.10;;;19.80;29.30;20.20;93256.00;;;;10269181;28;45306;-62
2021/11/21 11:26:03;;;;;;;3.55;1.20;;;19.80;29.30;20.20;93259.00;;;;10253169;28;46120;-60
2021/11/21 11:31:26;;;;;;;2.80;1.20;;;19.80;29.30;20.10;93249.00;;;;10286383;28;46422;-60
2021/11/21 11:36:31;;;;;;;2.35;1.15;;;19.70;29.60;20.20;93241.00;;;;10293891;28;45795;-60
2021/11/21 11:41:34;;;;;;;4.13;1.38;;;19.70;29.70;20.20;93246.00;;;;10293421;28;47111;-61
2021/11/21 11:46:36;;;;;;;4.68;1.17;;;19.70;30.80;20.10;93237.00;;;;10293944;28;47450;-67
2021/11/21 11:51:37;;;;;;;3.33;1.13;;;19.70;30.40;20.10;93229.00;;;;10256400;28;48245;-67
2021/11/21 11:56:47;;;;;;;4.15;1.25;;;19.70;30.10;20.10;93231.00;;;;10271490;28;46392;-68
2021/11/21 12:01:53;;;;;;;3.67;1.20;;;19.70;30.00;20.00;93216.00;;;;10253268;28;47629;-68
2021/11/21 12:06:56;;;;;;;2.27;0.87;;;19.70;30.10;20.00;93219.00;;;;10253136;28;48179;-68
2021/11/21 12:12:11;;;;;;;3.25;1.23;;;19.60;30.00;20.00;93214.00;;;;10252884;28;47252;-67
2021/11/21 12:17:16;;;;;;;2.83;1.30;;;19.60;30.00;20.00;93192.00;;;;10237218;28;48004;-68
2021/11/21 12:22:37;;;;;;;3.33;1.20;;;19.60;30.10;20.00;93178.00;;;;10252926;28;46704;-67
2021/11/21 12:27:44;;;;;;;2.60;1.10;;;19.60;30.00;20.00;93188.00;;;;10252695;28;46870;-67
2021/11/21 12:32:53;;;;;;;3.20;1.17;;;19.60;30.10;20.00;93186.00;;;;10253013;28;47067;-67
2021/11/21 12:37:56;;;;;;;3.45;1.30;;;19.60;30.20;20.00;93190.00;;;;10252226;28;47062;-68
2021/11/21 12:43:12;;;;;;;5.25;1.20;;;19.60;30.20;20.00;93168.00;;;;10236485;28;47332;-67
2021/11/21 12:48:16;;;;;;;2.47;1.20;;;19.60;30.20;20.00;93138.00;;;;10245113;28;47570;-68
2021/11/21 12:53:21;;;;;;;3.75;1.20;;;19.60;30.20;20.00;93145.00;;;;10292119;28;47333;-68
2021/11/21 12:58:29;;;;;;;2.57;0.93;;;19.60;30.20;20.00;93133.00;;;;10258189;28;47128;-67
2021/11/21 13:03:30;;;;;;;4.57;1.20;;;19.50;30.10;20.00;93136.00;;;;10254254;28;47335;-68
2021/11/21 13:08:37;;;;;;;3.55;1.00;;;19.60;30.20;20.00;93154.00;;;;10258699;28;47301;-68
2021/11/21 13:13:50;;;;;;;3.08;1.02;;;19.60;30.30;20.00;93135.00;;;;10258894;28;45204;-68
2021/11/21 13:18:54;;;;;;;3.50;1.02;;;19.60;30.30;20.00;93140.00;;;;10257598;28;45498;-67
2021/11/21 13:23:54;;;;;;;2.35;1.13;;;19.60;30.40;20.00;93119.00;;;;10258592;28;45425;-68
2021/11/21 13:29:00;;;;;;;2.42;1.10;;;19.60;30.40;20.00;93128.00;;;;10258187;28;45977;-67
2021/11/21 13:34:17;;;;;;;2.23;0.97;;;19.60;30.40;20.00;93133.00;;;;10258734;28;47441;-68
2021/11/21 13:39:38;;;;;;;1.73;1.00;;;19.60;30.40;20.00;93116.00;;;;10258773;28;45930;-69
2021/11/21 13:44:43;;;;;;;2.05;1.00;;;19.60;30.40;20.00;93124.00;;;;10257679;28;48913;-68
2021/11/21 13:49:49;;;;;;;3.50;0.95;;;19.60;30.40;20.00;93119.00;;;;10268267;28;47105;-68
2021/11/21 13:54:54;;;;;;;2.45;1.08;;;19.60;30.40;20.00;93104.00;;;;10256998;28;47536;-67
2021/11/21 13:59:59;;;;;;;2.90;1.05;;;19.60;30.40;20.00;93099.00;;;;10256876;28;46674;-68
2021/11/21 14:05:10;;;;;;;1.85;0.82;;;19.60;30.50;20.00;93127.00;;;;10256338;28;48166;-68
2021/11/21 14:10:14;;;;;;;2.00;0.90;;;19.60;30.50;20.00;93124.00;;;;10255942;28;45293;-67
2021/11/21 14:15:16;;;;;;;1.38;0.73;;;19.60;30.60;20.00;93133.00;;;;10254986;28;45385;-67
2021/11/21 14:20:33;;;;;;;2.65;0.93;;;19.60;30.50;20.00;93121.00;;;;10239722;28;47498;-67
2021/11/21 14:25:46;;;;;;;3.00;0.90;;;19.60;31.00;20.00;93117.00;;;;10255791;28;47916;-67
2021/11/21 14:30:48;;;;;;;1.88;0.70;;;19.60;30.90;20.00;93132.00;;;;10255792;28;47144;-67
2021/11/21 14:35:58;;;;;;;2.95;0.80;;;19.60;30.90;20.00;93124.00;;;;10255109;28;45284;-68
2021/11/21 14:41:06;;;;;;;2.33;1.10;;;19.50;30.70;20.00;93145.00;;;;10231305;28;47267;-68
2021/11/21 14:46:10;;;;;;;1.20;0.68;;;19.50;30.70;20.00;93128.00;;;;10231251;28;48186;-67
2021/11/21 14:51:11;;;;;;;1.10;0.80;;;19.50;30.80;20.00;93128.00;;;;10287901;28;47503;-67
2021/11/21 14:56:16;;;;;;;2.33;0.80;;;19.60;30.70;20.00;93138.00;;;;10235402;28;45383;-67
2021/11/21 15:01:28;;;;;;;1.38;0.73;;;19.60;30.70;20.00;93120.00;;;;10216604;28;48239;-67
2021/11/21 15:06:32;;;;;;;1.88;0.85;;;19.60;30.70;20.00;93146.00;;;;10254484;28;46518;-67
2021/11/21 15:11:36;;;;;;;1.45;0.60;;;19.50;30.60;20.00;93160.00;;;;10254671;28;47889;-67
2021/11/21 15:16:38;;;;;;;2.30;1.00;;;19.50;31.10;20.00;93144.00;;;;10254003;28;47397;-67
2021/11/21 15:21:39;;;;;;;2.22;0.80;;;19.60;31.00;20.00;93146.00;;;;10253362;28;46872;-67
2021/11/21 15:26:40;;;;;;;2.72;0.98;;;19.60;31.00;20.00;93135.00;;;;10254385;28;46204;-67
2021/11/21 15:31:45;;;;;;;1.75;0.85;;;19.60;31.00;20.00;93143.00;;;;10229310;28;46881;-67
2021/11/21 15:36:48;;;;;;;1.63;0.60;;;19.60;31.10;20.00;93125.00;;;;10229857;28;47820;-67
2021/11/21 15:41:48;;;;;;;1.85;0.93;;;19.60;31.00;20.00;93129.00;;;;10252935;28;46887;-66
2021/11/21 15:46:49;;;;;;;1.67;0.70;;;19.60;31.00;20.00;93126.00;;;;10271189;28;46972;-66
2021/11/21 15:51:50;;;;;;;1.63;0.75;;;19.60;31.00;20.00;93115.00;;;;10269393;28;48225;-67
2021/11/21 15:56:50;;;;;;;1.60;1.02;;;19.60;31.00;20.10;93104.00;;;;10253752;28;45650;-64
2021/11/21 16:01:51;;;;;;;1.40;0.60;;;19.60;32.30;20.30;93126.00;;;;10252799;28;46965;-68
2021/11/21 16:06:52;;;;;;;5.60;1.02;;;19.70;33.40;20.70;93125.00;;;;10252708;28;48097;-69
2021/11/21 16:11:55;;;;;;;3.60;0.70;;;20.00;35.80;20.80;93139.00;;;;10252694;28;45414;-65
2021/11/21 16:17:01;;;;;;;4.28;0.85;;;20.10;34.50;20.70;93126.00;;;;10251812;28;46973;-67
2021/11/21 16:22:02;;;;;;;2.10;0.75;;;20.20;34.70;20.70;93121.00;;;;10252834;28;45992;-67
2021/11/21 16:27:03;;;;;;;6.55;0.93;;;20.20;35.00;20.70;93133.00;;;;10252537;28;48309;-67
2021/11/21 16:32:05;;;;;;;3.85;1.13;;;20.20;33.80;20.60;93125.00;;;;10252524;28;47278;-62
2021/11/21 16:37:05;;;;;;;2.40;1.33;;;20.20;32.90;20.50;93134.00;;;;10249046;28;45325;-71
2021/11/21 16:42:09;;;;;;;3.25;1.40;;;20.20;32.50;20.50;93140.00;;;;10256216;28;45426;-71
2021/11/21 16:47:13;;;;;;;6.85;1.80;;;20.20;32.30;20.50;93146.00;;;;10260631;28;45270;-71
2021/11/21 16:52:15;;;;;;;2.78;1.30;;;20.10;32.00;20.60;93160.00;;;;10268036;28;47434;-71
2021/11/21 16:57:18;;;;;;;2.45;1.30;;;20.10;31.80;20.60;93158.00;;;;10290694;28;47112;-71
2021/11/21 17:02:24;;;;;;;3.42;1.52;;;20.10;31.60;20.60;93162.00;;;;10258777;28;47153;-71
2021/11/21 17:07:26;;;;;;;2.70;1.50;;;20.10;31.50;20.60;93172.00;;;;10258931;28;48023;-69
2021/11/21 17:12:28;;;;;;;3.00;1.52;;;20.20;31.40;20.60;93173.00;;;;10258225;28;47359;-71
2021/11/21 17:17:29;;;;;;;2.72;1.58;;;20.20;31.30;20.60;93168.00;;;;10258865;28;46875;-67
2021/11/21 17:22:30;;;;;;;2.15;1.73;;;20.20;31.40;20.70;93179.00;;;;10251958;28;46319;-65
2021/11/21 17:27:31;;;;;;;3.90;1.92;;;20.20;31.50;20.70;93177.00;;;;10256342;28;47058;-68
2021/11/21 17:32:32;;;;;;;2.90;1.50;;;20.30;31.80;20.80;93197.00;;;;10255034;28;47791;-67
2021/11/21 17:37:36;;;;;;;3.10;1.67;;;20.30;32.20;20.80;93193.00;;;;10256857;28;46672;-68
2021/11/21 17:42:39;;;;;;;2.72;1.83;;;20.40;32.10;20.80;93224.00;;;;10256987;28;47746;-67
2021/11/21 17:47:40;;;;;;;3.10;1.73;;;20.40;31.90;20.80;93218.00;;;;10257175;28;47124;-66
2021/11/21 17:52:41;;;;;;;3.70;1.50;;;20.40;31.70;20.80;93233.00;;;;10254871;28;46245;-66
2021/11/21 17:57:44;;;;;;;2.88;1.90;;;20.40;31.60;20.80;93251.00;;;;10259905;28;47318;-65
2021/11/21 18:02:45;;;;;;;3.78;1.80;;;20.50;31.60;20.90;93242.00;;;;10256933;28;46136;-67
2021/11/21 18:07:47;;;;;;;2.35;1.70;;;20.40;31.50;20.90;93239.00;;;;10255613;28;46919;-66
2021/11/21 18:12:49;;;;;;;2.30;1.70;;;20.50;31.50;20.90;93250.00;;;;10255482;28;47169;-68
2021/11/21 18:17:51;;;;;;;1.65;1.30;;;20.50;31.50;20.90;93238.00;;;;10254855;28;46830;-69
2021/11/21 18:22:52;;;;;;;2.78;1.40;;;20.50;31.50;20.90;93229.00;;;;10255840;28;46563;-66
2021/11/21 18:27:53;;;;;;;3.55;1.60;;;20.50;32.20;21.00;93247.00;;;;10256215;28;47081;-68
2021/11/21 18:32:55;;;;;;;2.10;1.65;;;20.60;31.90;21.00;93270.00;;;;10254630;28;47376;-67
2021/11/21 18:37:57;;;;;;;2.75;1.70;;;20.50;32.00;21.00;93282.00;;;;10251642;28;46959;-66
2021/11/21 18:42:57;;;;;;;2.35;1.70;;;20.60;31.70;21.00;93273.00;;;;10255003;28;46563;-69
2021/11/21 18:47:59;;;;;;;2.40;1.33;;;20.50;31.60;21.00;93290.00;;;;10262726;28;47207;-68
2021/11/21 18:53:00;;;;;;;1.98;1.40;;;20.60;31.70;21.00;93272.00;;;;10256109;28;46992;-65
2021/11/21 18:58:01;;;;;;;2.38;1.50;;;20.60;31.50;21.00;93269.00;;;;10255313;28;45244;-66
2021/11/21 19:03:05;;;;;;;1.90;1.40;;;20.60;31.50;21.10;93264.00;;;;10254201;28;47379;-68
2021/11/21 19:08:06;;;;;;;2.28;1.50;;;20.60;31.40;21.00;93258.00;;;;10255987;28;47158;-69
2021/11/21 19:13:07;;;;;;;1.63;1.27;;;20.60;31.50;21.00;93274.00;;;;10255011;28;46805;-67
2021/11/21 19:18:08;;;;;;;1.45;1.30;;;20.60;31.30;21.10;93249.00;;;;10255964;28;45150;-68
2021/11/21 19:23:09;;;;;;;1.33;1.10;;;20.60;31.30;21.00;93270.00;;;;10273303;28;47289;-67
2021/11/21 19:28:10;;;;;;;1.50;1.25;;;20.60;31.10;21.00;93271.00;;;;10280155;28;46853;-68
2021/11/21 19:33:12;;;;;;;1.60;1.15;;;20.60;31.00;21.00;93264.00;;;;10268946;28;47068;-67
2021/11/21 19:38:12;;;;;;;1.67;1.30;;;20.60;31.60;21.00;93270.00;;;;10269130;28;45507;-67
2021/11/21 19:43:13;;;;;;;1.92;1.20;;;20.60;30.80;21.00;93263.00;;;;10270191;28;47324;-66
2021/11/21 19:48:14;;;;;;;1.33;1.10;;;20.60;30.70;21.00;93272.00;;;;10267180;28;48235;-67
2021/11/21 19:53:15;;;;;;;1.48;1.15;;;20.60;30.60;21.00;93281.00;;;;10308130;28;47096;-67
2021/11/21 19:58:15;;;;;;;1.80;1.25;;;20.60;30.50;21.00;93295.00;;;;10313303;28;45722;-67
2021/11/21 20:03:16;;;;;;;1.13;0.93;;;20.60;30.50;21.00;93289.00;;;;10294987;28;45323;-67
2021/11/21 20:08:17;;;;;;;1.65;1.10;;;20.60;30.50;21.00;93294.00;;;;10270827;28;46960;-66
2021/11/21 20:13:22;;;;;;;2.28;1.30;;;20.60;30.40;21.00;93300.00;;;;10261639;28;47287;-67
2021/11/21 20:18:23;;;;;;;2.00;1.15;;;20.60;30.70;21.00;93294.00;;;;10260471;28;48295;-69
2021/11/21 20:23:24;;;;;;;1.77;1.15;;;20.60;30.70;21.10;93304.00;;;;10259732;28;47980;-68
2021/11/21 20:28:26;;;;;;;1.02;0.93;;;20.60;30.70;21.10;93320.00;;;;10271856;28;47119;-68
2021/11/21 20:38:46;;;;;;;1.40;1.10;;;20.60;30.80;21.10;93319.00;;;;10262003;28;45289;-67
2021/11/21 20:43:47;;;;;;;1.40;1.00;;;20.60;30.80;21.10;93324.00;;;;10259303;28;47582;-67
2021/11/21 20:48:48;;;;;;;1.25;1.05;;;20.70;30.90;21.10;93327.00;;;;10258347;28;45278;-71
2021/11/21 20:53:49;;;;;;;1.10;0.98;;;20.70;31.00;21.20;93322.00;;;;10258318;28;47619;-68
2021/11/21 20:58:49;;;;;;;1.40;1.10;;;20.80;31.30;21.20;93310.00;;;;10258014;28;45647;-67
2021/11/21 21:03:51;;;;;;;2.33;1.00;;;20.80;31.00;21.20;93303.00;;;;10258240;28;47299;-67
2021/11/21 21:08:53;;;;;;;1.42;1.00;;;20.80;31.00;21.20;93309.00;;;;10258009;28;46907;-66
2021/11/21 21:13:54;;;;;;;1.23;1.05;;;20.70;31.20;21.20;93288.00;;;;10258553;28;47466;-67
2021/11/21 21:18:56;;;;;;;1.48;1.00;;;20.80;31.20;21.20;93312.00;;;;10257518;28;47390;-67
2021/11/21 21:24:00;;;;;;;1.30;1.10;;;20.80;31.00;21.20;93296.00;;;;10257675;28;46344;-67
2021/11/21 21:29:03;;;;;;;1.33;0.85;;;20.80;30.90;21.20;93300.00;;;;10258695;28;47586;-63
2021/11/21 21:34:03;;;;;;;1.55;1.00;;;20.80;30.90;21.00;93298.00;;;;10258565;28;46152;-66
2021/11/21 21:39:05;;;;;;;1.35;0.95;;;20.70;30.40;20.90;93299.00;;;;10257577;28;45581;-60
2021/11/21 21:44:09;;;;;;;1.40;1.00;;;20.60;30.20;20.80;93299.00;;;;10256378;28;45507;-68
2021/11/21 21:49:11;;;;;;;1.20;0.90;;;20.60;29.90;21.00;93290.00;;;;10261426;28;47230;-67
2021/11/21 21:54:12;;;;;;;0.80;0.73;;;20.60;30.10;21.00;93314.00;;;;10297284;28;47059;-67
2021/11/21 21:59:13;;;;;;;2.13;1.02;;;20.60;30.00;21.10;93309.00;;;;10297100;28;46902;-67
2021/11/21 22:04:14;;;;;;;0.93;0.75;;;20.60;30.00;21.10;93306.00;;;;10297521;28;48252;-66
2021/11/21 22:09:19;;;;;;;0.75;0.70;;;20.60;30.10;21.10;93320.00;;;;10297178;28;45212;-67
2021/11/21 22:14:20;;;;;;;0.77;0.60;;;20.60;30.10;21.10;93322.00;;;;10297561;28;47098;-67